Asiago Airport LIDA

Flugplatz Daten

Name: Asiago Airport

Ident: LIDA

Lat: 45,88690186

Long: 11,51690006

Platzhöhe: 3409 ft

IataCode:

City: Vicenza

Metar

2020/05/06 12:50
MSLU 061250Z 00000KT 3000 HZ SCT027 28/23 Q1009.9 A2982= 74% VISIBILIDAD REDUCIDA 3 KM POR BRUMA HZ.

Taf

Gewünschte Webcam nicht vorhanden? Dann fügen Sie eine hinzu. Sie wird dann so schnell wie möglich freigeschaltet
Url: Title: